createdAt,value
2023-04-07T00:00:54.151Z,1.20
2023-04-07T00:03:24.830Z,0.50
2023-04-07T00:05:54.265Z,0.60
2023-04-07T00:08:22.924Z,0.20
2023-04-07T00:10:51.714Z,0.50
2023-04-07T00:13:21.085Z,1.10
2023-04-07T00:15:49.735Z,1.20
2023-04-07T00:18:25.045Z,0.90
2023-04-07T00:20:53.523Z,1.80
2023-04-07T00:23:22.227Z,0.30
2023-04-07T00:25:51.089Z,1.50
2023-04-07T00:28:19.393Z,0.50
2023-04-07T00:30:53.303Z,0.30
2023-04-07T00:33:23.182Z,1.00
2023-04-07T00:35:51.794Z,1.00
2023-04-07T00:38:21.025Z,0.80
2023-04-07T00:40:49.647Z,0.90
2023-04-07T00:43:19.974Z,0.70
2023-04-07T00:45:48.242Z,1.10
2023-04-07T00:48:16.824Z,0.90
2023-04-07T00:50:48.169Z,0.70
2023-04-07T00:53:16.691Z,0.40
2023-04-07T00:55:45.436Z,0.60
2023-04-07T00:58:13.992Z,0.80
2023-04-07T01:00:56.478Z,1.50
2023-04-07T01:03:32.741Z,0.70
2023-04-07T01:06:02.701Z,1.20
2023-04-07T01:08:33.233Z,0.60
2023-04-07T01:11:33.525Z,1.30
2023-04-07T01:14:02.237Z,0.90
2023-04-07T01:16:44.088Z,0.50
2023-04-07T01:19:34.048Z,0.50
2023-04-07T01:22:04.374Z,0.80
2023-04-07T01:25:05.936Z,0.80
2023-04-07T01:27:38.969Z,0.60
2023-04-07T01:30:10.582Z,2.20
2023-04-07T01:32:41.312Z,0.40
2023-04-07T01:35:11.530Z,1.10
2023-04-07T01:37:40.626Z,0.80
2023-04-07T01:40:09.171Z,0.70
2023-04-07T01:42:38.043Z,1.40
2023-04-07T01:45:07.250Z,1.30
2023-04-07T01:47:37.669Z,0.70
2023-04-07T01:50:07.311Z,0.00
2023-04-07T01:52:36.652Z,1.50
2023-04-07T01:55:07.012Z,1.40
2023-04-07T01:57:39.983Z,0.80
2023-04-07T02:00:14.920Z,1.10
2023-04-07T02:05:20.935Z,1.30
2023-04-07T02:07:58.726Z,0.70
2023-04-07T02:10:37.319Z,1.30
2023-04-07T02:13:06.751Z,0.20
2023-04-07T02:15:35.687Z,0.40
2023-04-07T02:18:05.145Z,0.00
2023-04-07T02:20:36.644Z,0.80
2023-04-07T02:23:05.221Z,0.60
2023-04-07T02:25:38.574Z,0.30
2023-04-07T02:28:07.357Z,0.60
2023-04-07T02:30:36.136Z,0.70
2023-04-07T02:33:06.285Z,0.70
2023-04-07T02:35:35.090Z,0.30
2023-04-07T02:38:03.686Z,1.40
2023-04-07T02:40:32.823Z,1.90
2023-04-07T02:43:01.852Z,0.40
2023-04-07T02:45:30.457Z,1.10
2023-04-07T02:47:58.858Z,0.30
2023-04-07T02:50:29.282Z,0.80
2023-04-07T02:52:57.592Z,0.70
2023-04-07T02:55:27.429Z,1.60
2023-04-07T02:57:56.321Z,0.20
2023-04-07T03:00:45.795Z,1.20
2023-04-07T03:03:23.169Z,0.40
2023-04-07T03:06:04.669Z,1.60
2023-04-07T03:08:33.655Z,0.60
2023-04-07T03:11:02.748Z,0.80
2023-04-07T03:13:32.397Z,1.00
2023-04-07T03:16:07.898Z,1.90
2023-04-07T03:18:45.695Z,1.90
2023-04-07T03:21:14.072Z,0.20
2023-04-07T03:23:42.734Z,0.10
2023-04-07T03:26:11.188Z,1.00
2023-04-07T03:28:39.935Z,0.70
2023-04-07T03:31:09.348Z,0.80
2023-04-07T03:33:38.417Z,0.60
2023-04-07T03:36:08.508Z,0.60
2023-04-07T03:38:37.932Z,1.00
2023-04-07T03:41:06.585Z,0.70
2023-04-07T03:43:36.077Z,1.10
2023-04-07T03:46:04.882Z,0.90
2023-04-07T03:48:35.773Z,0.70
2023-04-07T03:51:08.963Z,0.90
2023-04-07T03:53:38.596Z,1.10
2023-04-07T03:56:17.299Z,0.60
2023-04-07T03:58:51.175Z,1.40
2023-04-07T04:01:26.816Z,0.70
2023-04-07T04:03:56.127Z,1.20
2023-04-07T04:06:37.183Z,1.70
2023-04-07T04:09:23.083Z,1.00
2023-04-07T04:11:52.175Z,0.40
2023-04-07T04:14:22.807Z,2.00
2023-04-07T04:16:58.355Z,1.30
2023-04-07T04:19:47.005Z,2.30
2023-04-07T04:22:24.294Z,4.30
2023-04-07T04:24:55.440Z,3.10
2023-04-07T04:27:26.541Z,2.90
2023-04-07T04:30:01.911Z,4.60
2023-04-07T04:32:41.323Z,2.80
2023-04-07T04:35:10.551Z,3.10
2023-04-07T04:37:47.324Z,3.20
2023-04-07T04:40:18.984Z,3.70
2023-04-07T04:42:50.014Z,2.40
2023-04-07T04:45:18.597Z,4.10
2023-04-07T04:47:52.771Z,3.30
2023-04-07T04:50:21.695Z,4.90
2023-04-07T04:52:51.306Z,4.30
2023-04-07T04:55:25.622Z,2.20
2023-04-07T04:57:55.034Z,5.30
2023-04-07T05:00:36.968Z,3.00
2023-04-07T05:03:12.415Z,3.30
2023-04-07T05:05:43.290Z,2.80
2023-04-07T05:08:16.786Z,3.60
2023-04-07T05:10:47.733Z,1.50
2023-04-07T05:13:18.027Z,2.50
2023-04-07T05:15:49.366Z,3.40
2023-04-07T05:18:17.976Z,2.40
2023-04-07T05:20:51.885Z,3.40
2023-04-07T05:23:24.148Z,2.70
2023-04-07T05:25:53.669Z,3.00
2023-04-07T05:28:22.771Z,2.10
2023-04-07T05:31:01.721Z,1.30
2023-04-07T05:33:35.082Z,1.70
2023-04-07T05:36:04.825Z,2.50
2023-04-07T05:38:35.835Z,2.30
2023-04-07T05:45:51.555Z,2.30
2023-04-07T05:48:20.519Z,2.10
2023-04-07T05:50:49.102Z,1.60
2023-04-07T05:53:19.317Z,2.50
2023-04-07T05:55:50.663Z,2.20
2023-04-07T05:58:28.465Z,3.20
2023-04-07T06:00:57.357Z,3.70
2023-04-07T06:03:27.148Z,1.70
2023-04-07T06:06:04.971Z,1.90
2023-04-07T06:08:34.575Z,2.20
2023-04-07T06:11:03.248Z,3.20
2023-04-07T06:13:31.933Z,2.20
2023-04-07T06:16:01.029Z,3.10
2023-04-07T06:18:31.801Z,2.80
2023-04-07T06:21:01.157Z,3.60
2023-04-07T06:23:35.885Z,2.50
2023-04-07T06:26:12.360Z,2.80
2023-04-07T06:28:41.957Z,2.00
2023-04-07T06:31:13.121Z,1.80
2023-04-07T06:33:42.915Z,1.70
2023-04-07T06:36:14.153Z,2.30
2023-04-07T06:38:46.428Z,1.60
2023-04-07T06:41:17.696Z,1.60
2023-04-07T06:43:48.525Z,1.60
2023-04-07T06:46:18.497Z,2.40
2023-04-07T06:48:48.332Z,2.50
2023-04-07T06:51:17.136Z,2.00
2023-04-07T06:53:49.626Z,2.60
2023-04-07T06:56:18.889Z,1.70
2023-04-07T06:58:47.692Z,1.80
2023-04-07T07:01:17.918Z,2.20
2023-04-07T07:03:48.528Z,1.70
2023-04-07T07:06:21.013Z,2.50
2023-04-07T07:08:50.770Z,3.30
2023-04-07T07:11:25.430Z,3.00
2023-04-07T07:13:55.558Z,2.90
2023-04-07T07:16:24.746Z,3.20
2023-04-07T07:18:56.421Z,3.30
2023-04-07T07:21:26.211Z,2.50
2023-04-07T07:23:55.498Z,2.60
2023-04-07T07:26:24.978Z,1.60
2023-04-07T07:28:56.765Z,2.40
2023-04-07T07:31:28.225Z,1.40
2023-04-07T07:33:58.254Z,1.70
2023-04-07T07:36:32.559Z,2.00
2023-04-07T07:39:02.593Z,3.40
2023-04-07T07:41:31.964Z,2.70
2023-04-07T07:44:00.467Z,3.70
2023-04-07T07:46:29.795Z,3.10
2023-04-07T07:48:59.665Z,2.10
2023-04-07T07:51:28.991Z,2.90
2023-04-07T07:53:59.287Z,2.20
2023-04-07T07:56:28.572Z,4.00
2023-04-07T07:58:58.377Z,1.70
2023-04-07T08:01:28.920Z,2.10
2023-04-07T08:03:58.343Z,2.00
2023-04-07T08:06:32.155Z,2.60
2023-04-07T08:09:01.503Z,2.40
2023-04-07T08:11:30.518Z,2.10
2023-04-07T08:13:59.422Z,2.30
2023-04-07T08:16:28.659Z,1.10
2023-04-07T08:18:57.268Z,2.00
2023-04-07T08:21:27.494Z,1.80
2023-04-07T08:23:57.124Z,1.60
2023-04-07T08:26:29.318Z,1.70
2023-04-07T08:29:03.636Z,1.70
2023-04-07T08:31:34.273Z,1.90
2023-04-07T08:34:06.063Z,2.60
2023-04-07T08:36:36.962Z,1.50
2023-04-07T08:39:06.806Z,2.90
2023-04-07T08:41:38.101Z,2.30
2023-04-07T08:44:10.095Z,2.40
2023-04-07T08:46:39.537Z,1.70
2023-04-07T08:49:09.875Z,2.80
2023-04-07T08:51:41.961Z,2.40
2023-04-07T08:54:16.334Z,2.40
2023-04-07T08:56:49.890Z,1.50
2023-04-07T08:59:27.070Z,2.00
2023-04-07T09:01:59.948Z,1.60
2023-04-07T09:04:29.485Z,2.70
2023-04-07T09:07:02.394Z,2.10
2023-04-07T09:09:32.616Z,1.80
2023-04-07T09:12:07.623Z,1.50
2023-04-07T09:14:38.975Z,2.30
2023-04-07T09:17:07.572Z,2.20
2023-04-07T09:19:38.258Z,2.00
2023-04-07T09:22:13.518Z,4.30
2023-04-07T09:24:52.704Z,2.80
2023-04-07T09:27:21.126Z,2.80
2023-04-07T09:29:49.760Z,2.80
2023-04-07T09:32:39.182Z,2.50
2023-04-07T09:35:08.711Z,1.70
2023-04-07T09:37:37.815Z,3.60
2023-04-07T09:40:07.117Z,3.70
2023-04-07T09:42:38.184Z,3.90
2023-04-07T09:45:07.073Z,4.00
2023-04-07T09:47:35.921Z,5.20
2023-04-07T09:50:07.248Z,3.90
2023-04-07T09:52:53.994Z,3.30
2023-04-07T09:55:23.008Z,3.40
2023-04-07T09:57:52.084Z,2.40
2023-04-07T10:00:20.869Z,2.80
2023-04-07T10:02:51.412Z,3.70
2023-04-07T10:05:23.011Z,4.20
2023-04-07T10:07:52.832Z,3.10
2023-04-07T10:10:22.869Z,4.30
2023-04-07T10:17:09.570Z,3.60
2023-04-07T10:24:04.026Z,3.60
2023-04-07T10:26:33.282Z,4.90
2023-04-07T10:29:07.732Z,5.90
2023-04-07T10:31:40.584Z,5.40
2023-04-07T10:35:19.066Z,2.40
2023-04-07T10:38:36.901Z,3.10
2023-04-07T10:41:38.162Z,2.80
2023-04-07T10:44:08.288Z,4.10
2023-04-07T10:46:46.884Z,5.00
2023-04-07T10:49:18.634Z,2.40
2023-04-07T10:52:22.604Z,3.60
2023-04-07T10:55:25.424Z,2.90
2023-04-07T10:58:19.288Z,4.80
2023-04-07T11:01:10.886Z,4.10
2023-04-07T11:03:52.488Z,3.30
2023-04-07T11:06:21.554Z,4.30
2023-04-07T11:08:51.130Z,5.00
2023-04-07T11:11:38.514Z,4.80
2023-04-07T11:14:07.834Z,5.20
2023-04-07T11:16:41.669Z,3.40
2023-04-07T11:19:11.358Z,4.10
2023-04-07T11:21:45.006Z,2.70
2023-04-07T11:24:34.426Z,4.30
2023-04-07T11:27:03.560Z,4.50
2023-04-07T11:29:32.660Z,4.40
2023-04-07T11:32:02.498Z,4.50
2023-04-07T11:34:35.719Z,3.80
2023-04-07T11:37:24.119Z,4.90
2023-04-07T11:39:55.559Z,6.90
2023-04-07T11:42:40.037Z,6.80
2023-04-07T11:45:19.503Z,4.70
2023-04-07T11:47:50.977Z,5.20
2023-04-07T11:50:41.114Z,5.60
2023-04-07T11:53:09.366Z,5.00
2023-04-07T11:55:37.619Z,4.70
2023-04-07T11:58:10.514Z,3.80
2023-04-07T12:01:05.212Z,3.80
2023-04-07T12:03:38.122Z,3.50
2023-04-07T12:06:12.308Z,4.10
2023-04-07T12:08:43.881Z,5.10
2023-04-07T12:11:13.477Z,4.80
2023-04-07T12:13:43.293Z,4.70
2023-04-07T12:16:12.270Z,5.20
2023-04-07T12:18:41.921Z,4.70
2023-04-07T12:21:10.649Z,6.60
2023-04-07T12:23:41.148Z,3.80
2023-04-07T12:26:12.563Z,4.50
2023-04-07T12:28:41.542Z,4.50
2023-04-07T12:31:10.487Z,4.10
2023-04-07T12:33:39.344Z,3.00
2023-04-07T12:36:08.847Z,3.60
2023-04-07T12:38:37.525Z,4.50
2023-04-07T12:41:06.084Z,4.50
2023-04-07T12:43:34.975Z,5.30
2023-04-07T12:46:05.882Z,4.10
2023-04-07T12:48:35.117Z,4.40
2023-04-07T12:51:03.745Z,5.00
2023-04-07T12:53:33.684Z,3.60
2023-04-07T12:56:02.656Z,4.30
2023-04-07T12:58:35.449Z,4.20
2023-04-07T13:01:04.720Z,4.20
2023-04-07T13:03:43.312Z,4.40
2023-04-07T13:06:19.370Z,4.70
2023-04-07T13:08:49.322Z,3.90
2023-04-07T13:11:17.789Z,5.30
2023-04-07T13:13:49.707Z,4.10
2023-04-07T13:16:18.664Z,3.70
2023-04-07T13:18:47.067Z,4.00
2023-04-07T13:23:50.936Z,3.50
2023-04-07T13:26:20.216Z,5.10
2023-04-07T13:28:49.085Z,4.50
2023-04-07T13:31:18.348Z,5.00
2023-04-07T13:33:48.328Z,4.70
2023-04-07T13:36:17.355Z,4.60
2023-04-07T13:38:46.460Z,4.50
2023-04-07T13:41:15.636Z,4.90
2023-04-07T13:43:44.846Z,4.30
2023-04-07T13:46:27.191Z,5.50
2023-04-07T13:48:57.778Z,5.50
2023-04-07T13:51:28.248Z,4.50
2023-04-07T14:00:57.369Z,3.80
2023-04-07T14:03:26.712Z,5.00
2023-04-07T14:18:02.455Z,4.00
2023-04-07T14:20:31.158Z,2.70
2023-04-07T14:23:04.775Z,4.20
2023-04-07T14:25:35.102Z,4.00
2023-04-07T14:28:04.484Z,3.00
2023-04-07T14:30:38.382Z,2.40
2023-04-07T14:33:07.556Z,4.50
2023-04-07T14:35:39.486Z,5.80
2023-04-07T14:38:07.885Z,3.50
2023-04-07T14:40:38.945Z,3.60
2023-04-07T14:43:10.405Z,3.10
2023-04-07T14:45:39.099Z,4.30
2023-04-07T14:48:08.660Z,3.70
2023-04-07T14:50:37.079Z,4.20
2023-04-07T14:53:05.406Z,3.30
2023-04-07T14:55:34.925Z,3.20
2023-04-07T14:58:06.240Z,2.90
2023-04-07T15:00:36.330Z,2.50
2023-04-07T15:03:16.388Z,2.20
2023-04-07T15:05:44.778Z,2.80
2023-04-07T15:08:14.253Z,2.40
2023-04-07T15:10:42.841Z,2.20
2023-04-07T15:13:11.424Z,1.70
2023-04-07T15:15:39.802Z,2.90
2023-04-07T15:18:08.798Z,2.40
2023-04-07T15:20:37.679Z,3.40
2023-04-07T15:23:06.203Z,3.10
2023-04-07T15:25:34.950Z,2.40
2023-04-07T15:28:03.729Z,2.90
2023-04-07T15:30:34.690Z,3.30
2023-04-07T15:33:04.969Z,2.90
2023-04-07T15:35:34.299Z,3.10
2023-04-07T15:38:02.881Z,2.60
2023-04-07T15:40:31.459Z,3.90
2023-04-07T15:42:59.741Z,2.10
2023-04-07T15:45:28.619Z,4.30
2023-04-07T15:47:57.131Z,4.20
2023-04-07T15:50:27.547Z,4.80
2023-04-07T15:52:58.936Z,3.90
2023-04-07T15:55:27.451Z,2.80
2023-04-07T15:57:58.451Z,2.80
2023-04-07T16:00:28.309Z,2.30
2023-04-07T16:02:58.378Z,2.00
2023-04-07T16:05:26.931Z,2.60
2023-04-07T16:07:55.325Z,3.70
2023-04-07T16:10:31.486Z,3.30
2023-04-07T16:13:07.838Z,3.10
2023-04-07T16:18:22.895Z,3.10
2023-04-07T16:37:55.067Z,4.20
2023-04-07T16:40:24.367Z,2.70
2023-04-07T16:42:53.067Z,3.70
2023-04-07T16:45:23.377Z,3.80
2023-04-07T16:47:52.587Z,5.00
2023-04-07T16:50:22.819Z,4.70
2023-04-07T16:52:51.892Z,7.30
2023-04-07T16:55:20.680Z,5.20
2023-04-07T16:57:49.672Z,5.60
2023-04-07T17:00:19.782Z,6.90
2023-04-07T17:03:08.549Z,5.60
2023-04-07T17:05:37.852Z,5.00
2023-04-07T17:08:06.420Z,6.20
2023-04-07T17:10:37.045Z,5.90
2023-04-07T17:13:05.748Z,6.60
2023-04-07T17:15:38.466Z,5.60
2023-04-07T17:18:08.601Z,5.90
2023-04-07T17:20:38.436Z,8.90
2023-04-07T17:23:07.240Z,6.00
2023-04-07T17:25:37.565Z,9.50
2023-04-07T17:28:06.027Z,9.00
2023-04-07T17:30:37.054Z,9.10
2023-04-07T17:33:08.413Z,10.20
2023-04-07T17:35:37.021Z,12.10
2023-04-07T17:38:06.023Z,10.80
2023-04-07T17:40:35.007Z,12.90
2023-04-07T17:43:03.861Z,9.30
2023-04-07T17:45:33.168Z,9.50
2023-04-07T17:48:01.970Z,8.10
2023-04-07T17:50:31.105Z,12.70
2023-04-07T17:53:00.452Z,8.70
2023-04-07T17:55:30.248Z,10.90
2023-04-07T17:58:01.309Z,9.90
2023-04-07T18:00:29.990Z,12.80
2023-04-07T18:03:14.609Z,11.30
2023-04-07T18:05:45.202Z,12.90
2023-04-07T18:08:13.637Z,16.60
2023-04-07T18:10:42.642Z,13.90
2023-04-07T18:13:11.218Z,11.90
2023-04-07T18:15:39.925Z,15.90
2023-04-07T18:18:08.701Z,10.30
2023-04-07T18:20:38.097Z,9.10
2023-04-07T18:23:06.385Z,8.30
2023-04-07T18:25:35.165Z,11.30
2023-04-07T18:28:04.266Z,10.10
2023-04-07T18:30:33.235Z,8.60
2023-04-07T18:33:01.870Z,10.30
2023-04-07T18:35:31.007Z,6.80
2023-04-07T18:38:00.154Z,9.50
2023-04-07T18:40:32.879Z,5.90
2023-04-07T18:43:02.688Z,6.20
2023-04-07T18:45:31.791Z,5.30
2023-04-07T18:48:00.166Z,5.60
2023-04-07T18:50:29.255Z,5.20
2023-04-07T18:53:00.143Z,4.80
2023-04-07T18:55:28.993Z,5.50
2023-04-07T18:57:57.718Z,7.50
2023-04-07T19:00:27.943Z,8.50
2023-04-07T19:02:57.561Z,10.50
2023-04-07T19:05:26.857Z,12.60
2023-04-07T19:07:56.172Z,9.50
2023-04-07T19:10:25.081Z,13.40
2023-04-07T19:12:53.398Z,9.50
2023-04-07T19:15:21.845Z,11.10
2023-04-07T19:17:52.275Z,11.00
2023-04-07T19:20:20.943Z,12.30
2023-04-07T19:22:50.359Z,14.70
2023-04-07T19:25:19.494Z,13.70
2023-04-07T19:27:48.123Z,16.20
2023-04-07T19:30:16.701Z,20.30
2023-04-07T19:32:45.155Z,11.40
2023-04-07T19:35:14.077Z,14.70
2023-04-07T19:37:43.366Z,18.70
2023-04-07T19:40:12.074Z,21.80
2023-04-07T19:42:41.432Z,17.90
2023-04-07T19:45:10.573Z,16.50
2023-04-07T19:47:39.297Z,21.10
2023-04-07T19:50:09.183Z,16.30
2023-04-07T19:52:39.094Z,15.30
2023-04-07T19:55:10.576Z,15.60
2023-04-07T19:57:40.622Z,16.60
2023-04-07T20:00:13.483Z,15.90
2023-04-07T20:03:11.104Z,18.10
2023-04-07T20:05:40.059Z,14.30
2023-04-07T20:08:09.510Z,15.50
2023-04-07T20:10:37.854Z,16.80
2023-04-07T20:13:06.577Z,16.20
2023-04-07T20:15:36.433Z,13.10
2023-04-07T20:18:04.932Z,17.80
2023-04-07T20:20:33.597Z,13.80
2023-04-07T20:23:01.970Z,15.10
2023-04-07T20:25:30.874Z,13.10
2023-04-07T20:28:00.572Z,10.80
2023-04-07T20:30:29.966Z,13.60
2023-04-07T20:32:59.433Z,11.40
2023-04-07T20:35:28.386Z,9.60
2023-04-07T20:37:57.052Z,8.90
2023-04-07T20:40:34.647Z,11.30
2023-04-07T20:43:04.270Z,11.50
2023-04-07T20:45:33.408Z,18.40
2023-04-07T20:48:03.087Z,14.10
2023-04-07T20:50:31.948Z,19.50
2023-04-07T20:53:07.220Z,14.40
2023-04-07T20:55:36.793Z,17.40
2023-04-07T20:58:04.936Z,17.40
2023-04-07T21:00:34.665Z,12.80
2023-04-07T21:03:04.210Z,12.50
2023-04-07T21:05:33.347Z,13.50
2023-04-07T21:08:02.254Z,12.00
2023-04-07T21:10:31.762Z,12.00
2023-04-07T21:13:00.165Z,8.70
2023-04-07T21:15:31.040Z,11.20
2023-04-07T21:17:59.811Z,12.50
2023-04-07T21:20:28.216Z,12.30
2023-04-07T21:22:57.026Z,11.50
2023-04-07T21:25:25.535Z,11.70
2023-04-07T21:27:58.892Z,16.80
2023-04-07T21:30:27.473Z,11.40
2023-04-07T21:32:56.502Z,14.10
2023-04-07T21:35:31.152Z,19.10
2023-04-07T21:37:59.586Z,15.90
2023-04-07T21:40:27.948Z,15.30
2023-04-07T21:42:56.756Z,14.20
2023-04-07T21:45:25.210Z,15.90
2023-04-07T21:47:53.820Z,16.70
2023-04-07T21:50:22.380Z,17.10
2023-04-07T21:52:52.104Z,17.50
2023-04-07T21:55:20.867Z,13.00
2023-04-07T21:57:51.611Z,10.40
2023-04-07T22:00:20.532Z,11.40
2023-04-07T22:02:59.191Z,11.30
2023-04-07T22:05:30.145Z,11.90
2023-04-07T22:07:58.834Z,10.40
2023-04-07T22:10:27.155Z,11.80
2023-04-07T22:12:58.452Z,10.10
2023-04-07T22:15:26.736Z,11.60
2023-04-07T22:17:56.422Z,11.60
2023-04-07T22:20:28.088Z,8.30
2023-04-07T22:22:57.721Z,14.30
2023-04-07T22:25:26.548Z,10.10
2023-04-07T22:27:57.013Z,11.90
2023-04-07T22:30:25.791Z,11.30
2023-04-07T22:32:56.294Z,10.20
2023-04-07T22:35:24.824Z,11.70
2023-04-07T22:37:53.385Z,12.70
2023-04-07T22:40:22.369Z,9.40
2023-04-07T22:42:50.748Z,7.70
2023-04-07T22:45:19.533Z,11.50
2023-04-07T22:47:48.147Z,11.20
2023-04-07T22:50:17.005Z,12.10
2023-04-07T22:52:45.385Z,12.30
2023-04-07T22:55:14.064Z,11.80
2023-04-07T22:57:42.856Z,9.60
2023-04-07T23:00:11.948Z,9.00
2023-04-07T23:02:42.274Z,9.60
2023-04-07T23:05:11.682Z,8.70
2023-04-07T23:07:40.168Z,9.00
2023-04-07T23:10:10.572Z,8.80
2023-04-07T23:12:40.719Z,6.50
2023-04-07T23:15:09.787Z,8.40
2023-04-07T23:17:39.276Z,6.80
2023-04-07T23:20:08.615Z,7.90
2023-04-07T23:22:37.214Z,6.40
2023-04-07T23:25:06.984Z,6.90
2023-04-07T23:27:35.585Z,6.40
2023-04-07T23:30:04.754Z,7.20
2023-04-07T23:32:33.170Z,7.00
2023-04-07T23:35:01.813Z,6.00
2023-04-07T23:37:30.190Z,6.90
2023-04-07T23:39:58.571Z,7.80
2023-04-07T23:42:27.458Z,7.00
2023-04-07T23:44:56.151Z,5.20
2023-04-07T23:47:24.703Z,8.30
2023-04-07T23:49:53.409Z,8.60
2023-04-07T23:52:22.090Z,10.90
2023-04-07T23:54:50.757Z,8.90
2023-04-07T23:57:19.254Z,10.60
2023-04-07T23:59:47.412Z,13.10
